sensor_id;sensor_type;location;lat;lon;timestamp;pressure;altitude;pressure_sealevel;temperature;humidity
19789;BME280;10054;59.332;18.244;2023-04-27T00:00:29;100016.63;;;3.34;80.29
19789;BME280;10054;59.332;18.244;2023-04-27T00:02:58;100014.88;;;3.34;80.48
19789;BME280;10054;59.332;18.244;2023-04-27T00:05:29;100016.24;;;3.33;80.40
19789;BME280;10054;59.332;18.244;2023-04-27T00:07:58;100017.73;;;3.28;81.03
19789;BME280;10054;59.332;18.244;2023-04-27T00:10:27;100016.05;;;3.27;81.93
19789;BME280;10054;59.332;18.244;2023-04-27T00:12:57;100016.63;;;3.34;82.24
19789;BME280;10054;59.332;18.244;2023-04-27T00:15:26;100011.81;;;3.35;81.51
19789;BME280;10054;59.332;18.244;2023-04-27T00:17:55;100013.70;;;3.31;81.52
19789;BME280;10054;59.332;18.244;2023-04-27T00:20:24;100011.61;;;3.29;81.53
19789;BME280;10054;59.332;18.244;2023-04-27T00:22:53;100016.63;;;3.23;82.27
19789;BME280;10054;59.332;18.244;2023-04-27T00:25:22;100023.01;;;3.16;82.21
19789;BME280;10054;59.332;18.244;2023-04-27T00:27:51;100019.16;;;3.15;82.67
19789;BME280;10054;59.332;18.244;2023-04-27T00:30:20;100021.90;;;3.12;83.22
19789;BME280;10054;59.332;18.244;2023-04-27T00:32:49;100023.39;;;3.07;83.82
19789;BME280;10054;59.332;18.244;2023-04-27T00:35:18;100027.88;;;3.04;84.67
19789;BME280;10054;59.332;18.244;2023-04-27T00:37:47;100030.48;;;3.04;85.06
19789;BME280;10054;59.332;18.244;2023-04-27T00:40:16;100028.40;;;3.02;85.60
19789;BME280;10054;59.332;18.244;2023-04-27T00:42:45;100024.61;;;2.98;86.11
19789;BME280;10054;59.332;18.244;2023-04-27T00:45:14;100028.91;;;3.00;86.40
19789;BME280;10054;59.332;18.244;2023-04-27T00:47:44;100027.55;;;3.01;86.81
19789;BME280;10054;59.332;18.244;2023-04-27T00:50:14;100027.31;;;2.97;87.55
19789;BME280;10054;59.332;18.244;2023-04-27T00:52:44;100027.89;;;2.93;87.67
19789;BME280;10054;59.332;18.244;2023-04-27T00:55:15;100028.41;;;2.91;88.03
19789;BME280;10054;59.332;18.244;2023-04-27T00:57:44;100024.50;;;2.91;88.62
19789;BME280;10054;59.332;18.244;2023-04-27T01:00:14;100026.84;;;2.87;88.50
19789;BME280;10054;59.332;18.244;2023-04-27T01:02:43;100027.42;;;2.84;88.94
19789;BME280;10054;59.332;18.244;2023-04-27T01:05:12;100031.72;;;2.85;89.37
19789;BME280;10054;59.332;18.244;2023-04-27T01:07:42;100022.60;;;2.85;89.41
19789;BME280;10054;59.332;18.244;2023-04-27T01:10:11;100029.30;;;2.80;90.91
19789;BME280;10054;59.332;18.244;2023-04-27T01:12:42;100024.20;;;2.77;90.39
19789;BME280;10054;59.332;18.244;2023-04-27T01:15:11;100029.75;;;2.80;91.17
19789;BME280;10054;59.332;18.244;2023-04-27T01:17:40;100033.27;;;2.79;91.13
19789;BME280;10054;59.332;18.244;2023-04-27T01:20:10;100032.88;;;2.78;91.59
19789;BME280;10054;59.332;18.244;2023-04-27T01:22:39;100029.15;;;2.73;91.96
19789;BME280;10054;59.332;18.244;2023-04-27T01:27:58;100038.84;;;2.70;92.76
19789;BME280;10054;59.332;18.244;2023-04-27T01:30:27;100035.17;;;2.63;92.39
19789;BME280;10054;59.332;18.244;2023-04-27T01:32:59;100041.41;;;2.59;93.14
19789;BME280;10054;59.332;18.244;2023-04-27T01:35:28;100043.62;;;2.58;93.57
19789;BME280;10054;59.332;18.244;2023-04-27T01:37:58;100041.64;;;2.53;93.91
19789;BME280;10054;59.332;18.244;2023-04-27T01:40:28;100035.77;;;2.48;93.80
19789;BME280;10054;59.332;18.244;2023-04-27T01:42:57;100037.92;;;2.49;94.35
19789;BME280;10054;59.332;18.244;2023-04-27T01:45:28;100031.86;;;2.48;94.56
19789;BME280;10054;59.332;18.244;2023-04-27T01:47:58;100037.70;;;2.43;94.27
19789;BME280;10054;59.332;18.244;2023-04-27T01:50:27;100039.23;;;2.37;94.68
19789;BME280;10054;59.332;18.244;2023-04-27T01:52:56;100043.14;;;2.37;95.27
19789;BME280;10054;59.332;18.244;2023-04-27T01:55:26;100044.05;;;2.36;95.50
19789;BME280;10054;59.332;18.244;2023-04-27T01:57:55;100039.41;;;2.33;95.59
19789;BME280;10054;59.332;18.244;2023-04-27T02:00:24;100042.07;;;2.31;96.09
19789;BME280;10054;59.332;18.244;2023-04-27T02:02:53;100039.41;;;2.33;96.73
19789;BME280;10054;59.332;18.244;2023-04-27T02:05:24;100039.92;;;2.30;97.07
19789;BME280;10054;59.332;18.244;2023-04-27T02:07:53;100038.68;;;2.29;96.95
19789;BME280;10054;59.332;18.244;2023-04-27T02:10:22;100039.12;;;2.28;96.88
19789;BME280;10054;59.332;18.244;2023-04-27T02:12:53;100042.07;;;2.31;97.50
19789;BME280;10054;59.332;18.244;2023-04-27T02:15:23;100045.70;;;2.27;97.18
19789;BME280;10054;59.332;18.244;2023-04-27T02:17:52;100041.91;;;2.24;97.47
19789;BME280;10054;59.332;18.244;2023-04-27T02:20:22;100045.75;;;2.25;97.64
19789;BME280;10054;59.332;18.244;2023-04-27T02:22:50;100039.59;;;2.28;97.91
19789;BME280;10054;59.332;18.244;2023-04-27T02:25:20;100037.95;;;2.25;98.40
19789;BME280;10054;59.332;18.244;2023-04-27T02:27:49;100040.61;;;2.24;98.25
19789;BME280;10054;59.332;18.244;2023-04-27T02:30:19;100042.25;;;2.26;98.55
19789;BME280;10054;59.332;18.244;2023-04-27T02:32:48;100042.25;;;2.26;98.41
19789;BME280;10054;59.332;18.244;2023-04-27T02:35:17;100043.36;;;2.21;98.37
19789;BME280;10054;59.332;18.244;2023-04-27T02:37:47;100045.28;;;2.16;98.65
19789;BME280;10054;59.332;18.244;2023-04-27T02:40:16;100045.28;;;2.16;99.28
19789;BME280;10054;59.332;18.244;2023-04-27T02:42:46;100040.98;;;2.15;99.58
19789;BME280;10054;59.332;18.244;2023-04-27T02:45:15;100055.01;;;2.11;99.37
19789;BME280;10054;59.332;18.244;2023-04-27T02:47:45;100058.97;;;2.09;99.31
19789;BME280;10054;59.332;18.244;2023-04-27T02:50:14;100052.41;;;2.11;99.50
19789;BME280;10054;59.332;18.244;2023-04-27T02:52:43;100059.81;;;2.10;99.97
19789;BME280;10054;59.332;18.244;2023-04-27T02:55:12;100058.29;;;2.04;99.97
19789;BME280;10054;59.332;18.244;2023-04-27T02:57:41;100062.13;;;2.06;100.00
19789;BME280;10054;59.332;18.244;2023-04-27T03:00:11;100062.92;;;2.08;100.00
19789;BME280;10054;59.332;18.244;2023-04-27T03:02:41;100069.03;;;2.07;99.87
19789;BME280;10054;59.332;18.244;2023-04-27T03:05:10;100068.75;;;2.03;99.71
19789;BME280;10054;59.332;18.244;2023-04-27T03:07:39;100066.59;;;2.02;99.92
19789;BME280;10054;59.332;18.244;2023-04-27T03:10:09;100071.75;;;2.04;100.00
19789;BME280;10054;59.332;18.244;2023-04-27T03:12:38;100069.59;;;2.03;100.00
19789;BME280;10054;59.332;18.244;2023-04-27T03:15:08;100069.77;;;1.98;99.93
19789;BME280;10054;59.332;18.244;2023-04-27T03:17:37;100071.52;;;1.98;100.00
19789;BME280;10054;59.332;18.244;2023-04-27T03:20:07;100073.16;;;2.01;100.00
19789;BME280;10054;59.332;18.244;2023-04-27T03:22:36;100074.06;;;2.00;100.00
19789;BME280;10054;59.332;18.244;2023-04-27T03:25:06;100072.37;;;1.98;100.00
19789;BME280;10054;59.332;18.244;2023-04-27T03:27:35;100073.16;;;2.01;100.00
19789;BME280;10054;59.332;18.244;2023-04-27T03:30:05;100070.50;;;2.02;100.00
19789;BME280;10054;59.332;18.244;2023-04-27T03:32:35;100077.56;;;1.98;100.00
19789;BME280;10054;59.332;18.244;2023-04-27T03:35:05;100081.69;;;1.92;100.00
19789;BME280;10054;59.332;18.244;2023-04-27T03:37:34;100076.88;;;1.93;100.00
19789;BME280;10054;59.332;18.244;2023-04-27T03:40:03;100075.02;;;1.97;100.00
19789;BME280;10054;59.332;18.244;2023-04-27T03:42:35;100082.77;;;1.98;100.00
19789;BME280;10054;59.332;18.244;2023-04-27T03:45:05;100078.98;;;1.95;100.00
19789;BME280;10054;59.332;18.244;2023-04-27T03:47:34;100082.31;;;1.99;100.00
19789;BME280;10054;59.332;18.244;2023-04-27T03:50:04;100083.85;;;2.05;100.00
19789;BME280;10054;59.332;18.244;2023-04-27T03:52:33;100079.78;;;2.09;100.00
19789;BME280;10054;59.332;18.244;2023-04-27T03:55:05;100085.50;;;2.19;100.00
19789;BME280;10054;59.332;18.244;2023-04-27T03:57:34;100085.19;;;2.38;100.00
19789;BME280;10054;59.332;18.244;2023-04-27T04:00:04;100084.37;;;2.59;100.00
19789;BME280;10054;59.332;18.244;2023-04-27T04:02:36;100086.72;;;2.77;100.00
19789;BME280;10054;59.332;18.244;2023-04-27T04:05:06;100087.36;;;2.94;100.00
19789;BME280;10054;59.332;18.244;2023-04-27T04:07:35;100086.02;;;3.16;99.84
19789;BME280;10054;59.332;18.244;2023-04-27T04:10:05;100093.68;;;3.41;98.77
19789;BME280;10054;59.332;18.244;2023-04-27T04:12:37;100093.44;;;3.67;97.47
19789;BME280;10054;59.332;18.244;2023-04-27T04:15:06;100097.83;;;3.95;96.46
19789;BME280;10054;59.332;18.244;2023-04-27T04:17:35;100099.88;;;4.18;94.97
19789;BME280;10054;59.332;18.244;2023-04-27T04:20:05;100095.25;;;4.43;94.17
19789;BME280;10054;59.332;18.244;2023-04-27T04:22:37;100099.17;;;4.71;93.55
19789;BME280;10054;59.332;18.244;2023-04-27T04:25:07;100097.25;;;4.93;91.79
19789;BME280;10054;59.332;18.244;2023-04-27T04:27:36;100099.66;;;5.23;90.62
19789;BME280;10054;59.332;18.244;2023-04-27T04:30:06;100105.69;;;5.51;89.61
19789;BME280;10054;59.332;18.244;2023-04-27T04:32:37;100104.00;;;5.76;86.63
19789;BME280;10054;59.332;18.244;2023-04-27T04:35:06;100108.28;;;6.03;86.02
19789;BME280;10054;59.332;18.244;2023-04-27T04:37:35;100107.63;;;6.24;84.69
19789;BME280;10054;59.332;18.244;2023-04-27T04:40:05;100101.55;;;6.48;82.69
19789;BME280;10054;59.332;18.244;2023-04-27T04:42:36;100104.28;;;6.69;82.24
19789;BME280;10054;59.332;18.244;2023-04-27T04:45:07;100105.09;;;6.94;80.83
19789;BME280;10054;59.332;18.244;2023-04-27T04:47:36;100106.50;;;7.15;79.90
19789;BME280;10054;59.332;18.244;2023-04-27T04:50:07;100108.84;;;7.36;78.90
19789;BME280;10054;59.332;18.244;2023-04-27T04:52:36;100112.05;;;7.48;77.48
19789;BME280;10054;59.332;18.244;2023-04-27T04:55:12;100107.02;;;7.59;76.31
19789;BME280;10054;59.332;18.244;2023-04-27T04:57:41;100105.66;;;7.75;77.01
19789;BME280;10054;59.332;18.244;2023-04-27T05:00:12;100109.80;;;7.86;74.27
19789;BME280;10054;59.332;18.244;2023-04-27T05:02:41;100115.36;;;8.03;74.80
19789;BME280;10054;59.332;18.244;2023-04-27T05:05:10;100115.94;;;8.15;73.98
19789;BME280;10054;59.332;18.244;2023-04-27T05:07:38;100111.60;;;8.28;73.65
19789;BME280;10054;59.332;18.244;2023-04-27T05:10:08;100116.70;;;8.45;73.64
19789;BME280;10054;59.332;18.244;2023-04-27T05:12:36;100111.25;;;8.48;71.34
19789;BME280;10054;59.332;18.244;2023-04-27T05:15:06;100110.69;;;8.58;70.88
19789;BME280;10054;59.332;18.244;2023-04-27T05:17:34;100117.25;;;8.65;70.94
19789;BME280;10054;59.332;18.244;2023-04-27T05:20:04;100112.53;;;8.77;70.47
19789;BME280;10054;59.332;18.244;2023-04-27T05:22:32;100115.72;;;8.82;70.48
19789;BME280;10054;59.332;18.244;2023-04-27T05:25:01;100119.19;;;8.89;69.90
19789;BME280;10054;59.332;18.244;2023-04-27T05:27:31;100113.88;;;8.97;69.00
19789;BME280;10054;59.332;18.244;2023-04-27T05:30:00;100113.66;;;9.07;68.10
19789;BME280;10054;59.332;18.244;2023-04-27T05:32:29;100108.67;;;9.09;68.08
19789;BME280;10054;59.332;18.244;2023-04-27T05:34:59;100110.92;;;9.08;67.86
19789;BME280;10054;59.332;18.244;2023-04-27T05:37:28;100112.32;;;9.14;68.30
19789;BME280;10054;59.332;18.244;2023-04-27T05:39:57;100115.95;;;9.26;67.97
19789;BME280;10054;59.332;18.244;2023-04-27T05:42:25;100113.77;;;9.32;67.27
19789;BME280;10054;59.332;18.244;2023-04-27T05:44:54;100111.57;;;9.39;67.17
19789;BME280;10054;59.332;18.244;2023-04-27T05:47:23;100108.39;;;9.34;66.27
19789;BME280;10054;59.332;18.244;2023-04-27T05:49:52;100106.98;;;9.35;66.42
19789;BME280;10054;59.332;18.244;2023-04-27T05:52:21;100112.05;;;9.38;65.96
19789;BME280;10054;59.332;18.244;2023-04-27T05:54:51;100108.84;;;9.40;65.41
19789;BME280;10054;59.332;18.244;2023-04-27T05:57:20;100114.30;;;9.37;64.87
19789;BME280;10054;59.332;18.244;2023-04-27T05:59:49;100111.80;;;9.29;64.95
19789;BME280;10054;59.332;18.244;2023-04-27T06:02:25;100114.83;;;9.22;65.28
19789;BME280;10054;59.332;18.244;2023-04-27T06:04:55;100113.52;;;9.22;64.85
19789;BME280;10054;59.332;18.244;2023-04-27T06:07:24;100115.10;;;9.25;65.52
19789;BME280;10054;59.332;18.244;2023-04-27T06:09:52;100121.11;;;9.27;64.68
19789;BME280;10054;59.332;18.244;2023-04-27T06:12:21;100120.06;;;9.30;64.54
19789;BME280;10054;59.332;18.244;2023-04-27T06:14:50;100117.34;;;9.31;64.53
19789;BME280;10054;59.332;18.244;2023-04-27T06:17:21;100115.92;;;9.33;64.06
19789;BME280;10054;59.332;18.244;2023-04-27T06:19:50;100118.72;;;9.37;64.22
19789;BME280;10054;59.332;18.244;2023-04-27T06:22:18;100122.44;;;9.47;64.38
19789;BME280;10054;59.332;18.244;2023-04-27T06:24:47;100120.99;;;9.55;63.75
19789;BME280;10054;59.332;18.244;2023-04-27T06:27:16;100119.00;;;9.59;63.14
19789;BME280;10054;59.332;18.244;2023-04-27T06:29:44;100116.64;;;9.62;63.04
19789;BME280;10054;59.332;18.244;2023-04-27T06:32:20;100119.57;;;9.70;62.51
19789;BME280;10054;59.332;18.244;2023-04-27T06:34:47;100123.69;;;9.74;62.00
19789;BME280;10054;59.332;18.244;2023-04-27T06:37:16;100123.02;;;9.77;61.46
19789;BME280;10054;59.332;18.244;2023-04-27T06:39:46;100124.91;;;9.75;60.49
19789;BME280;10054;59.332;18.244;2023-04-27T06:42:14;100125.17;;;9.78;60.68
19789;BME280;10054;59.332;18.244;2023-04-27T06:44:43;100120.64;;;9.80;60.90
19789;BME280;10054;59.332;18.244;2023-04-27T06:47:13;100122.70;;;9.82;59.99
19789;BME280;10054;59.332;18.244;2023-04-27T06:49:41;100122.77;;;9.87;58.68
19789;BME280;10054;59.332;18.244;2023-04-27T06:52:10;100124.67;;;9.98;59.70
19789;BME280;10054;59.332;18.244;2023-04-27T06:54:39;100125.27;;;10.09;59.29
19789;BME280;10054;59.332;18.244;2023-04-27T06:57:08;100130.27;;;10.19;58.38
19789;BME280;10054;59.332;18.244;2023-04-27T06:59:39;100126.32;;;10.19;57.38
19789;BME280;10054;59.332;18.244;2023-04-27T07:02:07;100130.27;;;10.19;57.17
19789;BME280;10054;59.332;18.244;2023-04-27T07:04:37;100136.31;;;10.21;57.32
19789;BME280;10054;59.332;18.244;2023-04-27T07:07:06;100128.57;;;10.25;56.61
19789;BME280;10054;59.332;18.244;2023-04-27T07:09:34;100131.68;;;10.25;55.88
19789;BME280;10054;59.332;18.244;2023-04-27T07:12:03;100130.62;;;10.27;56.17
19789;BME280;10054;59.332;18.244;2023-04-27T07:14:33;100128.80;;;10.15;54.87
19789;BME280;10054;59.332;18.244;2023-04-27T07:17:02;100125.56;;;9.92;55.03
19789;BME280;10054;59.332;18.244;2023-04-27T07:19:31;100128.30;;;9.90;55.81
19789;BME280;10054;59.332;18.244;2023-04-27T07:22:00;100129.58;;;9.97;55.34
19789;BME280;10054;59.332;18.244;2023-04-27T07:24:29;100137.22;;;9.95;54.72
19789;BME280;10054;59.332;18.244;2023-04-27T07:26:57;100135.48;;;10.01;55.18
19789;BME280;10054;59.332;18.244;2023-04-27T07:29:28;100136.60;;;10.16;54.48
19789;BME280;10054;59.332;18.244;2023-04-27T07:31:57;100135.16;;;10.25;54.03
19789;BME280;10054;59.332;18.244;2023-04-27T07:34:26;100136.02;;;10.18;52.95
19789;BME280;10054;59.332;18.244;2023-04-27T07:36:54;100134.86;;;10.10;53.96
19789;BME280;10054;59.332;18.244;2023-04-27T07:39:23;100139.45;;;10.13;54.30
19789;BME280;10054;59.332;18.244;2023-04-27T07:41:53;100136.50;;;10.18;53.68
19789;BME280;10054;59.332;18.244;2023-04-27T07:44:22;100143.06;;;10.25;53.96
19789;BME280;10054;59.332;18.244;2023-04-27T07:46:51;100133.05;;;10.30;52.82
19789;BME280;10054;59.332;18.244;2023-04-27T07:49:21;100147.39;;;10.26;53.81
19789;BME280;10054;59.332;18.244;2023-04-27T07:51:49;100137.74;;;10.32;53.89
19789;BME280;10054;59.332;18.244;2023-04-27T07:54:18;100146.09;;;10.44;53.25
19789;BME280;10054;59.332;18.244;2023-04-27T07:56:47;100149.24;;;10.62;52.94
19789;BME280;10054;59.332;18.244;2023-04-27T07:59:16;100140.98;;;10.79;52.11
19789;BME280;10054;59.332;18.244;2023-04-27T08:01:45;100152.09;;;10.90;51.06
19789;BME280;10054;59.332;18.244;2023-04-27T08:04:14;100151.58;;;11.27;50.89
19789;BME280;10054;59.332;18.244;2023-04-27T08:06:43;100142.64;;;11.11;50.09
19789;BME280;10054;59.332;18.244;2023-04-27T08:09:12;100142.64;;;11.11;50.09
19789;BME280;10054;59.332;18.244;2023-04-27T08:11:42;100154.91;;;10.81;50.55
19789;BME280;10054;59.332;18.244;2023-04-27T08:14:11;100156.63;;;10.57;50.71
19789;BME280;10054;59.332;18.244;2023-04-27T08:16:43;100156.63;;;10.57;50.71
19789;BME280;10054;59.332;18.244;2023-04-27T08:19:11;100161.33;;;10.59;52.00
19789;BME280;10054;59.332;18.244;2023-04-27T08:21:40;100158.01;;;10.50;51.07
19789;BME280;10054;59.332;18.244;2023-04-27T08:24:09;100163.23;;;10.44;51.07
19789;BME280;10054;59.332;18.244;2023-04-27T08:26:39;100163.58;;;10.27;51.08
19789;BME280;10054;59.332;18.244;2023-04-27T08:29:08;100159.16;;;10.08;51.16
19789;BME280;10054;59.332;18.244;2023-04-27T08:31:37;100166.16;;;10.02;51.91
19789;BME280;10054;59.332;18.244;2023-04-27T08:34:05;100168.83;;;9.95;52.05
19789;BME280;10054;59.332;18.244;2023-04-27T08:36:34;100170.09;;;9.89;52.05
19789;BME280;10054;59.332;18.244;2023-04-27T08:39:03;100173.60;;;9.82;52.19
19789;BME280;10054;59.332;18.244;2023-04-27T08:41:35;100171.55;;;9.80;52.12
19789;BME280;10054;59.332;18.244;2023-04-27T08:44:06;100168.84;;;9.75;52.01
19789;BME280;10054;59.332;18.244;2023-04-27T08:46:36;100163.27;;;9.79;52.27
19789;BME280;10054;59.332;18.244;2023-04-27T08:49:05;100168.80;;;9.82;51.92
19789;BME280;10054;59.332;18.244;2023-04-27T08:51:34;100165.80;;;9.81;51.96
19789;BME280;10054;59.332;18.244;2023-04-27T08:54:03;100166.37;;;9.79;51.87
19789;BME280;10054;59.332;18.244;2023-04-27T08:56:32;100173.06;;;9.77;51.23
19789;BME280;10054;59.332;18.244;2023-04-27T08:59:01;100174.78;;;9.71;51.48
19789;BME280;10054;59.332;18.244;2023-04-27T09:01:30;100172.72;;;9.57;52.94
19789;BME280;10054;59.332;18.244;2023-04-27T09:04:01;100176.27;;;9.36;54.77
19789;BME280;10054;59.332;18.244;2023-04-27T09:06:34;100175.19;;;9.18;56.07
19789;BME280;10054;59.332;18.244;2023-04-27T09:09:03;100184.99;;;9.02;56.97
19789;BME280;10054;59.332;18.244;2023-04-27T09:11:35;100191.05;;;8.90;58.24
19789;BME280;10054;59.332;18.244;2023-04-27T09:14:21;100212.09;;;8.76;59.11
19789;BME280;10054;59.332;18.244;2023-04-27T09:16:54;100202.05;;;8.54;59.35
19789;BME280;10054;59.332;18.244;2023-04-27T09:19:26;100202.68;;;8.36;60.59
19789;BME280;10054;59.332;18.244;2023-04-27T09:22:06;100194.92;;;8.19;61.43
19789;BME280;10054;59.332;18.244;2023-04-27T09:24:35;100204.67;;;8.03;62.46
19789;BME280;10054;59.332;18.244;2023-04-27T09:27:06;100222.17;;;7.88;63.99
19789;BME280;10054;59.332;18.244;2023-04-27T09:29:36;100217.33;;;7.73;64.10
19789;BME280;10054;59.332;18.244;2023-04-27T09:32:18;100214.64;;;7.59;64.02
19789;BME280;10054;59.332;18.244;2023-04-27T09:34:47;100210.03;;;7.55;65.30
19789;BME280;10054;59.332;18.244;2023-04-27T09:37:16;100207.14;;;7.60;66.06
19789;BME280;10054;59.332;18.244;2023-04-27T09:39:46;100202.48;;;7.65;65.89
19789;BME280;10054;59.332;18.244;2023-04-27T09:42:16;100212.72;;;7.70;66.59
19789;BME280;10054;59.332;18.244;2023-04-27T09:44:46;100215.08;;;7.74;66.79
19789;BME280;10054;59.332;18.244;2023-04-27T09:47:15;100213.77;;;7.74;66.87
19789;BME280;10054;59.332;18.244;2023-04-27T09:49:43;100223.86;;;7.66;65.68
19789;BME280;10054;59.332;18.244;2023-04-27T09:52:12;100225.34;;;7.63;65.76
19789;BME280;10054;59.332;18.244;2023-04-27T09:54:42;100231.41;;;7.56;65.75
19789;BME280;10054;59.332;18.244;2023-04-27T09:57:25;100235.56;;;7.45;66.02
19789;BME280;10054;59.332;18.244;2023-04-27T10:06:26;100215.66;;;7.56;69.60
19789;BME280;10054;59.332;18.244;2023-04-27T10:07:59;100210.97;;;7.77;69.91
19789;BME280;10054;59.332;18.244;2023-04-27T10:10:28;100211.62;;;8.04;70.37
19789;BME280;10054;59.332;18.244;2023-04-27T10:13:01;100210.51;;;8.22;68.33
19789;BME280;10054;59.332;18.244;2023-04-27T10:15:30;100217.33;;;8.40;68.03
19789;BME280;10054;59.332;18.244;2023-04-27T10:18:04;100213.59;;;8.66;69.03
19789;BME280;10054;59.332;18.244;2023-04-27T10:20:36;100208.15;;;8.90;68.46
19789;BME280;10054;59.332;18.244;2023-04-27T10:23:05;100208.47;;;9.12;68.22
19789;BME280;10054;59.332;18.244;2023-04-27T10:25:39;100208.83;;;9.20;66.79
19789;BME280;10054;59.332;18.244;2023-04-27T10:28:14;100211.47;;;9.13;64.13
19789;BME280;10054;59.332;18.244;2023-04-27T10:30:42;100220.22;;;9.07;65.11
19789;BME280;10054;59.332;18.244;2023-04-27T10:33:18;100222.48;;;8.99;64.64
19789;BME280;10054;59.332;18.244;2023-04-27T10:35:58;100231.17;;;8.86;63.35
19789;BME280;10054;59.332;18.244;2023-04-27T10:38:30;100235.67;;;8.77;63.32
19789;BME280;10054;59.332;18.244;2023-04-27T10:41:01;100244.41;;;8.64;62.78
19789;BME280;10054;59.332;18.244;2023-04-27T10:43:33;100238.38;;;8.54;63.43
19789;BME280;10054;59.332;18.244;2023-04-27T10:46:13;100243.83;;;8.51;63.74
19789;BME280;10054;59.332;18.244;2023-04-27T10:48:43;100245.79;;;8.48;64.08
19789;BME280;10054;59.332;18.244;2023-04-27T10:51:16;100255.37;;;8.49;65.42
19789;BME280;10054;59.332;18.244;2023-04-27T10:53:44;100254.16;;;8.62;65.67
19789;BME280;10054;59.332;18.244;2023-04-27T10:56:14;100259.05;;;8.68;66.03
19789;BME280;10054;59.332;18.244;2023-04-27T10:58:43;100261.32;;;8.81;68.96
19789;BME280;10054;59.332;18.244;2023-04-27T11:01:21;100267.87;;;9.02;69.02
19789;BME280;10054;59.332;18.244;2023-04-27T11:03:42;100265.70;;;9.16;67.33
19789;BME280;10054;59.332;18.244;2023-04-27T11:06:12;100261.17;;;9.32;67.75
19789;BME280;10054;59.332;18.244;2023-04-27T11:08:44;100270.54;;;9.50;67.38
19789;BME280;10054;59.332;18.244;2023-04-27T11:11:14;100268.72;;;9.65;67.38
19789;BME280;10054;59.332;18.244;2023-04-27T11:13:46;100269.11;;;9.79;64.46
19789;BME280;10054;59.332;18.244;2023-04-27T11:16:16;100285.42;;;9.98;67.42
19789;BME280;10054;59.332;18.244;2023-04-27T11:18:45;100274.70;;;9.94;65.22
19789;BME280;10054;59.332;18.244;2023-04-27T11:21:15;100283.05;;;10.01;65.62
19789;BME280;10054;59.332;18.244;2023-04-27T11:23:45;100290.56;;;10.07;66.35
19789;BME280;10054;59.332;18.244;2023-04-27T11:26:19;100291.27;;;10.16;66.33
19789;BME280;10054;59.332;18.244;2023-04-27T11:29:01;100278.91;;;10.31;67.62
19789;BME280;10054;59.332;18.244;2023-04-27T11:31:40;100286.33;;;10.44;64.47
19789;BME280;10054;59.332;18.244;2023-04-27T11:34:17;100283.70;;;10.44;61.83
19789;BME280;10054;59.332;18.244;2023-04-27T11:36:41;100289.92;;;10.30;62.37
19789;BME280;10054;59.332;18.244;2023-04-27T11:39:17;100293.97;;;10.41;62.10
19789;BME280;10054;59.332;18.244;2023-04-27T11:41:45;100285.96;;;10.43;61.82
19789;BME280;10054;59.332;18.244;2023-04-27T11:44:15;100289.01;;;10.24;59.84
19789;BME280;10054;59.332;18.244;2023-04-27T11:46:44;100285.26;;;10.21;60.30
19789;BME280;10054;59.332;18.244;2023-04-27T11:49:15;100290.16;;;10.13;60.71
19789;BME280;10054;59.332;18.244;2023-04-27T11:51:45;100292.17;;;10.02;60.81
19789;BME280;10054;59.332;18.244;2023-04-27T11:54:15;100296.62;;;9.95;61.83
19789;BME280;10054;59.332;18.244;2023-04-27T11:56:43;100293.55;;;9.88;60.95
19789;BME280;10054;59.332;18.244;2023-04-27T11:59:20;100303.06;;;9.83;61.01
19789;BME280;10054;59.332;18.244;2023-04-27T12:01:54;100302.69;;;9.82;62.58
19789;BME280;10054;59.332;18.244;2023-04-27T12:04:23;100310.32;;;9.80;62.55
19789;BME280;10054;59.332;18.244;2023-04-27T12:06:52;100316.64;;;9.70;62.73
19789;BME280;10054;59.332;18.244;2023-04-27T12:09:21;100316.98;;;9.59;63.31
19789;BME280;10054;59.332;18.244;2023-04-27T12:11:50;100319.27;;;9.43;66.25
19789;BME280;10054;59.332;18.244;2023-04-27T12:14:20;100322.66;;;9.24;69.08
19789;BME280;10054;59.332;18.244;2023-04-27T12:16:49;100326.22;;;9.02;72.09
19789;BME280;10054;59.332;18.244;2023-04-27T12:19:18;100327.06;;;8.74;71.81
19789;BME280;10054;59.332;18.244;2023-04-27T12:21:48;100330.67;;;8.50;72.98
19789;BME280;10054;59.332;18.244;2023-04-27T12:24:17;100332.52;;;8.25;74.68
19789;BME280;10054;59.332;18.244;2023-04-27T12:26:46;100342.50;;;8.04;75.05
19789;BME280;10054;59.332;18.244;2023-04-27T12:29:15;100348.19;;;7.81;75.26
19789;BME280;10054;59.332;18.244;2023-04-27T12:31:44;100364.41;;;7.80;76.04
19789;BME280;10054;59.332;18.244;2023-04-27T12:34:13;100368.81;;;7.80;77.35
19789;BME280;10054;59.332;18.244;2023-04-27T12:36:41;100380.38;;;7.84;78.57
19789;BME280;10054;59.332;18.244;2023-04-27T12:39:18;100380.22;;;7.87;79.70
19789;BME280;10054;59.332;18.244;2023-04-27T12:41:48;100385.42;;;7.80;80.47
19789;BME280;10054;59.332;18.244;2023-04-27T12:44:18;100376.73;;;7.71;81.38
19789;BME280;10054;59.332;18.244;2023-04-27T12:46:48;100374.60;;;7.62;82.66
19789;BME280;10054;59.332;18.244;2023-04-27T12:49:17;100372.31;;;7.56;83.00
19789;BME280;10054;59.332;18.244;2023-04-27T12:51:46;100368.95;;;7.45;85.03
19789;BME280;10054;59.332;18.244;2023-04-27T12:54:17;100366.45;;;7.51;87.30
19789;BME280;10054;59.332;18.244;2023-04-27T12:56:46;100369.95;;;7.67;87.81
19789;BME280;10054;59.332;18.244;2023-04-27T12:59:14;100374.62;;;7.78;88.39
19789;BME280;10054;59.332;18.244;2023-04-27T13:01:43;100376.06;;;7.99;88.78
19789;BME280;10054;59.332;18.244;2023-04-27T13:04:17;100370.71;;;8.23;86.72
19789;BME280;10054;59.332;18.244;2023-04-27T13:06:46;100376.83;;;8.40;84.93
19789;BME280;10054;59.332;18.244;2023-04-27T13:09:15;100378.63;;;8.46;82.98